Time;durP1;ratioP1;P1;durP2;ratioP2;P2;SDS_P1;SDS_P2;PMS_P1;PMS_P2;Temp;Humidity;BMP_temperature;BMP_pressure;BME280_temperature;BME280_humidity;BME280_pressure;Samples;Min_cycle;Max_cycle;Signal;HPM_P1;HPM_P2
2022/09/03 00:02:06;;;;;;;;;11.00;10.67;;;;;;;;5043325;28;45421;-65
2022/09/03 00:04:39;;;;;;;;;12.00;11.00;;;;;;;;5013867;28;45488;-65
2022/09/03 00:07:07;;;;;;;;;8.00;8.00;;;;;;;;5040900;28;45311;-65
2022/09/03 00:09:41;;;;;;;;;12.67;10.33;;;;;;;;5043389;28;46257;-66
2022/09/03 00:12:15;;;;;;;;;11.33;11.33;;;;;;;;5040249;28;45329;-65
2022/09/03 00:15:00;;;;;;;;;8.00;8.00;;;;;;;;5044607;28;45294;-65
2022/09/03 00:17:48;;;;;;;;;11.33;10.67;;;;;;;;5037079;28;45268;-66
2022/09/03 00:20:32;;;;;;;;;10.33;10.33;;;;;;;;5034105;28;47113;-66
2022/09/03 00:23:00;;;;;;;;;9.67;8.33;;;;;;;;5036116;28;45404;-66
2022/09/03 00:25:32;;;;;;;;;10.67;10.67;;;;;;;;5044956;28;45285;-66
2022/09/03 00:28:00;;;;;;;;;4.00;3.33;;;;;;;;5042248;28;45441;-66
2022/09/03 00:30:26;;;;;;;;;11.67;10.00;;;;;;;;5044603;28;46781;-66
2022/09/03 00:33:04;;;;;;;;;10.00;8.00;;;;;;;;5038448;28;45351;-66
2022/09/03 00:35:52;;;;;;;;;9.67;9.33;;;;;;;;5040342;28;45300;-66
2022/09/03 00:38:17;;;;;;;;;9.67;8.67;;;;;;;;5034231;28;45511;-65
2022/09/03 00:40:42;;;;;;;;;9.00;8.00;;;;;;;;5044648;28;45557;-66
2022/09/03 00:43:08;;;;;;;;;9.00;9.00;;;;;;;;5036298;28;45311;-66
2022/09/03 00:45:33;;;;;;;;;8.67;8.67;;;;;;;;5044922;28;45318;-66
2022/09/03 00:48:13;;;;;;;;;10.00;10.00;;;;;;;;5038082;28;45475;-66
2022/09/03 00:50:52;;;;;;;;;10.00;10.00;;;;;;;;5032990;28;45545;-66
2022/09/03 00:53:21;;;;;;;;;8.33;8.33;;;;;;;;5036366;28;45854;-66
2022/09/03 00:55:55;;;;;;;;;10.00;10.00;;;;;;;;5035954;28;45585;-66
2022/09/03 00:58:31;;;;;;;;;10.67;8.00;;;;;;;;5038810;28;45526;-65
2022/09/03 01:00:58;;;;;;;;;10.00;10.00;;;;;;;;5037957;28;45638;-66
2022/09/03 01:03:38;;;;;;;;;7.33;7.33;;;;;;;;5041841;28;45402;-66
2022/09/03 01:06:17;;;;;;;;;10.00;9.00;;;;;;;;5040199;28;45336;-66
2022/09/03 01:08:49;;;;;;;;;14.67;13.00;;;;;;;;5041993;28;45524;-66
2022/09/03 01:11:35;;;;;;;;;9.67;9.67;;;;;;;;5038736;28;47256;-66
2022/09/03 01:14:12;;;;;;;;;8.00;8.00;;;;;;;;5038934;28;45257;-66
2022/09/03 01:16:43;;;;;;;;;8.67;7.67;;;;;;;;5042143;28;45642;-66
2022/09/03 01:19:27;;;;;;;;;11.00;9.00;;;;;;;;5038130;28;45151;-66
2022/09/03 01:21:57;;;;;;;;;8.00;8.00;;;;;;;;5040729;28;47601;-66
2022/09/03 01:24:42;;;;;;;;;8.33;8.33;;;;;;;;5040876;28;45387;-66
2022/09/03 01:27:26;;;;;;;;;9.33;7.67;;;;;;;;5041267;28;45602;-66
2022/09/03 01:30:02;;;;;;;;;9.33;7.67;;;;;;;;5059596;28;45611;-66
2022/09/03 01:32:36;;;;;;;;;10.33;9.00;;;;;;;;5040472;28;45435;-66
2022/09/03 01:35:19;;;;;;;;;8.00;6.33;;;;;;;;5043370;28;45512;-66
2022/09/03 01:37:54;;;;;;;;;6.00;6.00;;;;;;;;5034188;28;45246;-66
2022/09/03 01:40:19;;;;;;;;;7.00;7.00;;;;;;;;5039107;28;45534;-66
2022/09/03 01:43:08;;;;;;;;;6.25;6.00;;;;;;;;5029690;28;45641;-67
2022/09/03 01:45:33;;;;;;;;;8.33;8.33;;;;;;;;5010837;28;45355;-66
2022/09/03 01:48:18;;;;;;;;;8.33;8.33;;;;;;;;5036056;28;45421;-66
2022/09/03 01:50:46;;;;;;;;;7.33;7.33;;;;;;;;5043383;28;45238;-66
2022/09/03 01:53:11;;;;;;;;;7.00;7.00;;;;;;;;5037311;28;46307;-66
2022/09/03 01:55:56;;;;;;;;;9.00;9.00;;;;;;;;5043476;28;45424;-67
2022/09/03 01:58:34;;;;;;;;;7.67;7.00;;;;;;;;5036818;28;45468;-66
2022/09/03 02:01:02;;;;;;;;;9.33;9.33;;;;;;;;5040870;28;45464;-68
2022/09/03 02:03:36;;;;;;;;;9.33;7.67;;;;;;;;5036591;28;45959;-66
2022/09/03 02:06:02;;;;;;;;;7.00;6.00;;;;;;;;5043178;28;45286;-67
2022/09/03 02:08:28;;;;;;;;;6.00;6.00;;;;;;;;5036789;28;45490;-66
2022/09/03 02:10:58;;;;;;;;;9.00;9.00;;;;;;;;5043643;28;45482;-66
2022/09/03 02:13:27;;;;;;;;;7.67;7.00;;;;;;;;5039530;28;48012;-66
2022/09/03 02:15:56;;;;;;;;;6.67;6.67;;;;;;;;5043486;28;45291;-66
2022/09/03 02:18:24;;;;;;;;;9.33;8.00;;;;;;;;5037874;28;45279;-67
2022/09/03 02:20:51;;;;;;;;;13.00;10.00;;;;;;;;5038923;28;45614;-67
2022/09/03 02:23:17;;;;;;;;;9.67;9.67;;;;;;;;5039099;28;45462;-66
2022/09/03 02:25:44;;;;;;;;;7.33;7.33;;;;;;;;5043170;28;45337;-67
2022/09/03 02:28:10;;;;;;;;;8.67;6.67;;;;;;;;5038333;28;45404;-66
2022/09/03 02:30:35;;;;;;;;;9.00;9.00;;;;;;;;5041494;28;45408;-67
2022/09/03 02:33:01;;;;;;;;;8.00;8.00;;;;;;;;5035521;28;46451;-66
2022/09/03 02:35:26;;;;;;;;;8.33;7.00;;;;;;;;5040272;28;45421;-66
2022/09/03 02:37:52;;;;;;;;;6.33;6.33;;;;;;;;5037367;28;45388;-66
2022/09/03 02:40:17;;;;;;;;;7.00;7.00;;;;;;;;5041224;28;45474;-66
2022/09/03 02:42:43;;;;;;;;;7.67;7.67;;;;;;;;5036787;28;47315;-66
2022/09/03 02:45:15;;;;;;;;;7.33;7.33;;;;;;;;5042421;28;45236;-66
2022/09/03 02:47:43;;;;;;;;;10.67;9.00;;;;;;;;5038820;28;45508;-67
2022/09/03 02:50:09;;;;;;;;;6.00;6.00;;;;;;;;5042507;28;45474;-67
2022/09/03 02:52:34;;;;;;;;;8.00;8.00;;;;;;;;5036087;28;46111;-66
2022/09/03 02:54:59;;;;;;;;;7.33;6.33;;;;;;;;5042704;28;45565;-67
2022/09/03 02:57:24;;;;;;;;;5.67;5.67;;;;;;;;5038562;28;45699;-66
2022/09/03 02:59:50;;;;;;;;;11.67;10.33;;;;;;;;5040831;28;45403;-66
2022/09/03 03:02:15;;;;;;;;;9.00;7.00;;;;;;;;5034956;28;46820;-66
2022/09/03 03:04:40;;;;;;;;;8.33;8.33;;;;;;;;5052415;28;45411;-66
2022/09/03 03:07:06;;;;;;;;;8.33;8.00;;;;;;;;5038698;28;45344;-66
2022/09/03 03:09:31;;;;;;;;;9.00;9.00;;;;;;;;5042243;28;45513;-66
2022/09/03 03:11:56;;;;;;;;;7.00;7.00;;;;;;;;5039402;28;46390;-66
2022/09/03 03:14:21;;;;;;;;;6.00;6.00;;;;;;;;5040841;28;45420;-66
2022/09/03 03:16:47;;;;;;;;;6.67;6.67;;;;;;;;5040552;28;45432;-66
2022/09/03 03:19:12;;;;;;;;;10.33;9.00;;;;;;;;5040869;28;45296;-66
2022/09/03 03:21:38;;;;;;;;;9.00;7.67;;;;;;;;5038490;28;47285;-66
2022/09/03 03:24:03;;;;;;;;;6.67;6.67;;;;;;;;5052494;28;45354;-66
2022/09/03 03:26:28;;;;;;;;;8.33;7.00;;;;;;;;5038032;28;45481;-66
2022/09/03 03:28:58;;;;;;;;;8.33;8.33;;;;;;;;5036418;28;45497;-66
2022/09/03 03:31:23;;;;;;;;;7.00;7.00;;;;;;;;5056510;28;47439;-66
2022/09/03 03:33:59;;;;;;;;;9.33;8.00;;;;;;;;5035523;28;45294;-66
2022/09/03 03:36:25;;;;;;;;;14.33;11.67;;;;;;;;5040962;28;45289;-67
2022/09/03 03:38:52;;;;;;;;;11.33;9.67;;;;;;;;5037582;28;45402;-66
2022/09/03 03:41:20;;;;;;;;;8.33;7.00;;;;;;;;5041220;28;45749;-66
2022/09/03 03:43:46;;;;;;;;;8.00;8.00;;;;;;;;5032405;28;45439;-65
2022/09/03 03:46:11;;;;;;;;;10.00;10.00;;;;;;;;5040925;28;45419;-65
2022/09/03 03:48:37;;;;;;;;;10.00;9.33;;;;;;;;5037987;28;45678;-65
2022/09/03 03:51:05;;;;;;;;;10.67;9.67;;;;;;;;5041511;28;46029;-66
2022/09/03 03:53:30;;;;;;;;;11.00;10.33;;;;;;;;5035781;28;45373;-66
2022/09/03 03:55:56;;;;;;;;;9.00;9.00;;;;;;;;5041898;28;45282;-66
2022/09/03 03:58:22;;;;;;;;;7.33;7.33;;;;;;;;5037781;28;45562;-66
2022/09/03 04:00:48;;;;;;;;;10.67;10.67;;;;;;;;5041541;28;45420;-66
2022/09/03 04:03:14;;;;;;;;;16.67;11.00;;;;;;;;5035678;28;45433;-66
2022/09/03 04:05:39;;;;;;;;;9.33;8.00;;;;;;;;5041806;28;45360;-66
2022/09/03 04:08:04;;;;;;;;;11.33;9.33;;;;;;;;5035364;28;46278;-66
2022/09/03 04:10:30;;;;;;;;;11.00;11.00;;;;;;;;5041436;28;46328;-66
2022/09/03 04:12:55;;;;;;;;;9.00;9.00;;;;;;;;5035257;28;45373;-67
2022/09/03 04:15:20;;;;;;;;;9.67;9.00;;;;;;;;5041601;28;46019;-65
2022/09/03 04:17:45;;;;;;;;;13.00;13.00;;;;;;;;5038989;28;45361;-65
2022/09/03 04:20:10;;;;;;;;;12.67;12.67;;;;;;;;5044595;28;45264;-65
2022/09/03 04:22:35;;;;;;;;;9.00;9.00;;;;;;;;5041228;28;45570;-66
2022/09/03 04:25:01;;;;;;;;;9.67;9.33;;;;;;;;5043863;28;45528;-65
2022/09/03 04:27:26;;;;;;;;;11.67;11.33;;;;;;;;5042446;28;45312;-65
2022/09/03 04:29:51;;;;;;;;;12.67;10.00;;;;;;;;5044608;28;46131;-65
2022/09/03 04:35:00;;;;;;;;;7.00;7.00;;;;;;;;5036894;28;45168;-65
2022/09/03 04:37:25;;;;;;;;;12.33;11.33;;;;;;;;5042432;28;45659;-65
2022/09/03 04:39:51;;;;;;;;;9.33;9.33;;;;;;;;5039227;28;46484;-65
2022/09/03 04:42:16;;;;;;;;;13.33;12.00;;;;;;;;5041948;28;45845;-66
2022/09/03 04:44:42;;;;;;;;;10.67;10.67;;;;;;;;5043134;28;45298;-65
2022/09/03 04:47:07;;;;;;;;;11.67;11.67;;;;;;;;5041941;28;45307;-66
2022/09/03 04:49:33;;;;;;;;;11.00;10.33;;;;;;;;5042018;28;46301;-65
2022/09/03 04:51:58;;;;;;;;;11.67;10.33;;;;;;;;5041376;28;45365;-65
2022/09/03 04:54:23;;;;;;;;;9.67;9.67;;;;;;;;5041434;28;45546;-65
2022/09/03 04:56:49;;;;;;;;;13.67;12.33;;;;;;;;5043002;28;45682;-65
2022/09/03 04:59:14;;;;;;;;;13.00;11.33;;;;;;;;5039803;28;45674;-65
2022/09/03 05:01:39;;;;;;;;;11.33;10.67;;;;;;;;5042233;28;45463;-65
2022/09/03 05:04:05;;;;;;;;;11.00;11.00;;;;;;;;5040265;28;45441;-65
2022/09/03 05:06:32;;;;;;;;;9.00;9.00;;;;;;;;5044032;28;45348;-65
2022/09/03 05:08:57;;;;;;;;;12.00;12.00;;;;;;;;5041735;28;45448;-65
2022/09/03 05:11:23;;;;;;;;;12.67;10.33;;;;;;;;5043523;28;45456;-65
2022/09/03 05:13:49;;;;;;;;;9.00;9.00;;;;;;;;5040503;28;45373;-65
2022/09/03 05:16:15;;;;;;;;;13.67;9.00;;;;;;;;5044735;28;45323;-66
2022/09/03 05:18:41;;;;;;;;;9.00;9.00;;;;;;;;5037987;28;47015;-65
2022/09/03 05:21:11;;;;;;;;;8.00;8.00;;;;;;;;5044076;28;45353;-65
2022/09/03 05:23:38;;;;;;;;;12.67;12.33;;;;;;;;5035709;28;45543;-66
2022/09/03 05:26:07;;;;;;;;;10.67;10.00;;;;;;;;5044538;28;45349;-65
2022/09/03 05:28:35;;;;;;;;;11.67;10.00;;;;;;;;5054541;28;47973;-66
2022/09/03 05:31:01;;;;;;;;;13.33;8.67;;;;;;;;5043947;28;45427;-65
2022/09/03 05:33:26;;;;;;;;;9.33;9.33;;;;;;;;5041287;28;45405;-65
2022/09/03 05:35:52;;;;;;;;;9.67;9.67;;;;;;;;5050836;28;45566;-65
2022/09/03 05:38:18;;;;;;;;;12.00;10.33;;;;;;;;5038214;28;45373;-65
2022/09/03 05:40:43;;;;;;;;;11.00;10.67;;;;;;;;5044114;28;45330;-65
2022/09/03 05:43:08;;;;;;;;;13.67;11.33;;;;;;;;5037387;28;45361;-65
2022/09/03 05:45:33;;;;;;;;;10.00;10.00;;;;;;;;5044359;28;45507;-66
2022/09/03 05:47:59;;;;;;;;;10.67;9.67;;;;;;;;5036673;28;46118;-65
2022/09/03 05:50:24;;;;;;;;;10.67;8.67;;;;;;;;5043338;28;45517;-65
2022/09/03 05:52:50;;;;;;;;;12.33;10.00;;;;;;;;5037248;28;45403;-66
2022/09/03 05:55:15;;;;;;;;;14.00;13.33;;;;;;;;5042749;28;45310;-65
2022/09/03 05:57:42;;;;;;;;;10.67;10.67;;;;;;;;5037509;28;46187;-65
2022/09/03 06:00:08;;;;;;;;;13.33;11.33;;;;;;;;5042809;28;45398;-64
2022/09/03 06:02:33;;;;;;;;;10.00;10.00;;;;;;;;5039169;28;45521;-66
2022/09/03 06:04:58;;;;;;;;;14.33;10.33;;;;;;;;5041996;28;45366;-66
2022/09/03 06:07:24;;;;;;;;;9.00;6.67;;;;;;;;5040794;28;45736;-66
2022/09/03 06:09:49;;;;;;;;;10.33;10.33;;;;;;;;5038998;28;45432;-66
2022/09/03 06:12:14;;;;;;;;;15.00;13.67;;;;;;;;5034460;28;45329;-66
2022/09/03 06:14:39;;;;;;;;;13.67;12.33;;;;;;;;5039053;28;45329;-65
2022/09/03 06:17:05;;;;;;;;;11.33;11.33;;;;;;;;5038110;28;45425;-65
2022/09/03 06:19:30;;;;;;;;;11.33;11.33;;;;;;;;5043260;28;45339;-66
2022/09/03 06:21:55;;;;;;;;;11.67;11.00;;;;;;;;5041125;28;45226;-65
2022/09/03 06:24:25;;;;;;;;;13.33;10.33;;;;;;;;5042770;28;45376;-66
2022/09/03 06:26:51;;;;;;;;;15.67;12.33;;;;;;;;5041236;28;45291;-66
2022/09/03 06:29:18;;;;;;;;;14.67;11.67;;;;;;;;5042043;28;45416;-66
2022/09/03 06:31:43;;;;;;;;;9.67;9.33;;;;;;;;5041380;28;45230;-65
2022/09/03 06:34:08;;;;;;;;;9.67;8.33;;;;;;;;5041276;28;45333;-66
2022/09/03 06:36:33;;;;;;;;;8.67;8.67;;;;;;;;5040879;28;45621;-66
2022/09/03 06:38:59;;;;;;;;;9.33;8.67;;;;;;;;5040234;28;45366;-66
2022/09/03 06:41:26;;;;;;;;;13.00;10.67;;;;;;;;5041533;28;45292;-66
2022/09/03 06:43:58;;;;;;;;;12.33;12.33;;;;;;;;5036115;28;45590;-65
2022/09/03 06:46:23;;;;;;;;;14.00;10.33;;;;;;;;5042302;28;46160;-65
2022/09/03 06:48:49;;;;;;;;;11.00;10.00;;;;;;;;5037119;28;45330;-66
2022/09/03 06:51:19;;;;;;;;;15.67;12.00;;;;;;;;5038945;28;45457;-66
2022/09/03 06:53:46;;;;;;;;;12.33;11.67;;;;;;;;5039979;28;45447;-65
2022/09/03 06:56:12;;;;;;;;;14.00;11.33;;;;;;;;5042799;28;45376;-65
2022/09/03 06:58:41;;;;;;;;;12.00;12.00;;;;;;;;5038482;28;45357;-65
2022/09/03 07:01:08;;;;;;;;;11.33;10.00;;;;;;;;5057245;28;45488;-65
2022/09/03 07:03:36;;;;;;;;;11.00;10.00;;;;;;;;5038135;28;45453;-66
2022/09/03 07:06:12;;;;;;;;;10.33;10.33;;;;;;;;5042277;28;45402;-65
2022/09/03 07:08:37;;;;;;;;;11.67;11.67;;;;;;;;5035994;28;45423;-66
2022/09/03 07:11:08;;;;;;;;;12.00;11.00;;;;;;;;5042783;28;45263;-65
2022/09/03 07:13:39;;;;;;;;;13.33;11.33;;;;;;;;5040382;28;45383;-65
2022/09/03 07:16:06;;;;;;;;;13.67;13.67;;;;;;;;5055256;28;46729;-65
2022/09/03 07:18:32;;;;;;;;;11.33;11.33;;;;;;;;5038607;28;45412;-65
2022/09/03 07:20:58;;;;;;;;;13.33;12.00;;;;;;;;5042395;28;45277;-66
2022/09/03 07:23:23;;;;;;;;;12.33;11.00;;;;;;;;5054757;28;45481;-66
2022/09/03 07:25:53;;;;;;;;;12.00;10.33;;;;;;;;5057360;28;45465;-66
2022/09/03 07:28:18;;;;;;;;;12.33;12.33;;;;;;;;5036390;28;45447;-65
2022/09/03 07:30:44;;;;;;;;;11.67;11.67;;;;;;;;5040783;28;45366;-65
2022/09/03 07:33:09;;;;;;;;;9.67;9.67;;;;;;;;5035602;28;45356;-65
2022/09/03 07:35:35;;;;;;;;;10.00;10.00;;;;;;;;5041969;28;45420;-65
2022/09/03 07:38:00;;;;;;;;;12.67;10.67;;;;;;;;5035337;28;45367;-66
2022/09/03 07:40:26;;;;;;;;;8.33;8.33;;;;;;;;5041370;28;45411;-65
2022/09/03 07:42:57;;;;;;;;;8.67;8.67;;;;;;;;5036816;28;45626;-66
2022/09/03 07:45:22;;;;;;;;;11.00;7.67;;;;;;;;5055743;28;46481;-65
2022/09/03 07:47:48;;;;;;;;;9.00;9.00;;;;;;;;5035614;28;45357;-65
2022/09/03 07:50:15;;;;;;;;;10.67;10.67;;;;;;;;5040709;28;45419;-65
2022/09/03 07:52:40;;;;;;;;;10.67;10.67;;;;;;;;5057973;28;45478;-65
2022/09/03 07:55:05;;;;;;;;;9.33;9.33;;;;;;;;5044856;28;46330;-66
2022/09/03 07:57:31;;;;;;;;;9.00;9.00;;;;;;;;5038253;28;45395;-65
2022/09/03 07:59:56;;;;;;;;;11.00;9.33;;;;;;;;5044604;28;45606;-65
2022/09/03 08:02:21;;;;;;;;;9.33;7.67;;;;;;;;5040176;28;45381;-65
2022/09/03 08:04:46;;;;;;;;;9.00;9.00;;;;;;;;5045039;28;45526;-65
2022/09/03 08:07:11;;;;;;;;;11.67;11.00;;;;;;;;5057703;28;45286;-65
2022/09/03 08:09:37;;;;;;;;;9.67;8.67;;;;;;;;5043699;28;45387;-65
2022/09/03 08:12:02;;;;;;;;;9.00;9.00;;;;;;;;5043358;28;45243;-65
2022/09/03 08:14:30;;;;;;;;;7.33;7.00;;;;;;;;5042885;28;45425;-65
2022/09/03 08:16:55;;;;;;;;;8.00;8.00;;;;;;;;5043949;28;45467;-66
2022/09/03 08:19:21;;;;;;;;;8.00;8.00;;;;;;;;5057585;28;45446;-66
2022/09/03 08:21:46;;;;;;;;;10.33;10.00;;;;;;;;5037198;28;45611;-64
2022/09/03 08:24:13;;;;;;;;;7.00;6.00;;;;;;;;5038883;28;47140;-65
2022/09/03 08:26:41;;;;;;;;;10.00;9.67;;;;;;;;5039050;28;45400;-66
2022/09/03 08:29:06;;;;;;;;;8.67;8.67;;;;;;;;5039236;28;45448;-66
2022/09/03 08:31:32;;;;;;;;;9.00;8.67;;;;;;;;5044597;28;45349;-66
2022/09/03 08:33:58;;;;;;;;;7.00;7.00;;;;;;;;5042523;28;45403;-66
2022/09/03 08:36:30;;;;;;;;;7.00;7.00;;;;;;;;5044804;28;45344;-66
2022/09/03 08:38:55;;;;;;;;;7.00;7.00;;;;;;;;5039853;28;45434;-66
2022/09/03 08:41:32;;;;;;;;;7.33;7.00;;;;;;;;5045136;28;45428;-66
2022/09/03 08:44:05;;;;;;;;;6.33;5.33;;;;;;;;5038343;28;46569;-66
2022/09/03 08:46:53;;;;;;;;;7.00;5.33;;;;;;;;5043857;28;45325;-66
2022/09/03 08:49:41;;;;;;;;;6.33;6.33;;;;;;;;5045126;28;45378;-65
2022/09/03 08:52:13;;;;;;;;;14.67;13.67;;;;;;;;5023681;28;45348;-66
2022/09/03 08:54:38;;;;;;;;;8.00;7.00;;;;;;;;5041723;28;45370;-66
2022/09/03 08:57:04;;;;;;;;;7.67;7.67;;;;;;;;5042161;28;45215;-66
2022/09/03 08:59:30;;;;;;;;;6.67;6.00;;;;;;;;5044557;28;45246;-66
2022/09/03 09:02:03;;;;;;;;;8.00;8.00;;;;;;;;5042339;28;45459;-65
2022/09/03 09:04:42;;;;;;;;;6.00;6.00;;;;;;;;5040962;28;45357;-65
2022/09/03 09:07:13;;;;;;;;;5.00;5.00;;;;;;;;5031783;28;45432;-65
2022/09/03 09:09:56;;;;;;;;;6.67;5.67;;;;;;;;5042659;28;45471;-65
2022/09/03 09:12:40;;;;;;;;;4.67;4.67;;;;;;;;5041494;28;45325;-64
2022/09/03 09:15:08;;;;;;;;;6.00;5.00;;;;;;;;5044151;28;46452;-66
2022/09/03 09:17:33;;;;;;;;;4.00;4.00;;;;;;;;5038928;28;45429;-66
2022/09/03 09:20:10;;;;;;;;;5.00;5.00;;;;;;;;5044477;28;45314;-66
2022/09/03 09:22:47;;;;;;;;;2.00;2.00;;;;;;;;5056212;28;45407;-66
2022/09/03 09:25:18;;;;;;;;;7.67;7.67;;;;;;;;5044024;28;45519;-66
2022/09/03 09:27:48;;;;;;;;;7.00;5.33;;;;;;;;5039594;28;45387;-66
2022/09/03 09:30:15;;;;;;;;;5.67;5.67;;;;;;;;5038568;28;45318;-66
2022/09/03 09:32:41;;;;;;;;;6.67;5.67;;;;;;;;5033260;28;45460;-66
2022/09/03 09:35:07;;;;;;;;;4.67;4.67;;;;;;;;5044043;28;45447;-66
2022/09/03 09:37:34;;;;;;;;;5.00;5.00;;;;;;;;5041425;28;45501;-66
2022/09/03 09:39:59;;;;;;;;;4.00;4.00;;;;;;;;5044396;28;45443;-66
2022/09/03 09:42:26;;;;;;;;;5.67;5.67;;;;;;;;5040375;28;45566;-66
2022/09/03 09:44:51;;;;;;;;;4.00;4.00;;;;;;;;5043973;28;46283;-66
2022/09/03 09:47:19;;;;;;;;;4.00;4.00;;;;;;;;5054796;28;45281;-67
2022/09/03 09:49:45;;;;;;;;;4.00;4.00;;;;;;;;5044145;28;45338;-66
2022/09/03 09:52:11;;;;;;;;;6.00;4.00;;;;;;;;5040251;28;45393;-65
2022/09/03 09:54:37;;;;;;;;;3.33;3.33;;;;;;;;5042023;28;45570;-65
2022/09/03 09:57:05;;;;;;;;;4.00;4.00;;;;;;;;5040112;28;45365;-65
2022/09/03 09:59:32;;;;;;;;;5.33;5.33;;;;;;;;5040274;28;45321;-65
2022/09/03 10:02:03;;;;;;;;;4.33;4.00;;;;;;;;5041839;28;45501;-65
2022/09/03 10:04:30;;;;;;;;;4.00;4.00;;;;;;;;5039970;28;45309;-65
2022/09/03 10:07:00;;;;;;;;;4.67;4.33;;;;;;;;5041438;28;45436;-66
2022/09/03 10:09:26;;;;;;;;;3.67;2.00;;;;;;;;5053188;28;45379;-65
2022/09/03 10:12:04;;;;;;;;;6.00;6.00;;;;;;;;5041375;28;45584;-65
2022/09/03 10:14:34;;;;;;;;;6.33;6.33;;;;;;;;5040325;28;45389;-65
2022/09/03 10:17:13;;;;;;;;;4.00;4.00;;;;;;;;5040604;28;45406;-66
2022/09/03 10:22:46;;;;;;;;;4.33;4.33;;;;;;;;5022727;28;45464;-67
2022/09/03 10:25:13;;;;;;;;;4.33;4.33;;;;;;;;5042968;28;46115;-66
2022/09/03 10:27:39;;;;;;;;;6.00;6.00;;;;;;;;5039473;28;45519;-65
2022/09/03 10:30:13;;;;;;;;;6.33;5.00;;;;;;;;5042260;28;45240;-65
2022/09/03 10:32:38;;;;;;;;;6.00;5.00;;;;;;;;5054545;28;45313;-64
2022/09/03 10:35:22;;;;;;;;;5.00;5.00;;;;;;;;5042807;28;46300;-65
2022/09/03 10:38:06;;;;;;;;;4.33;4.33;;;;;;;;5052306;28;45727;-66
2022/09/03 10:40:41;;;;;;;;;5.00;5.00;;;;;;;;5041936;28;45358;-66
2022/09/03 10:43:09;;;;;;;;;6.00;6.00;;;;;;;;5039213;28;45309;-65
2022/09/03 10:45:49;;;;;;;;;5.67;5.67;;;;;;;;5042907;28;45573;-65
2022/09/03 10:48:49;;;;;;;;;5.33;5.33;;;;;;;;5036296;28;45452;-65
2022/09/03 10:51:15;;;;;;;;;6.67;6.00;;;;;;;;5001032;28;45472;-66
2022/09/03 10:53:48;;;;;;;;;2.67;2.67;;;;;;;;5027958;28;45424;-67
2022/09/03 10:56:16;;;;;;;;;5.67;5.00;;;;;;;;5042711;28;46510;-66
2022/09/03 10:59:07;;;;;;;;;5.33;5.00;;;;;;;;5036008;28;45596;-66
2022/09/03 11:01:36;;;;;;;;;4.33;4.00;;;;;;;;5037039;28;45277;-65
2022/09/03 11:04:13;;;;;;;;;5.00;5.00;;;;;;;;5035907;28;45604;-66
2022/09/03 11:06:45;;;;;;;;;5.67;5.67;;;;;;;;5041029;28;45609;-66
2022/09/03 11:09:23;;;;;;;;;6.00;6.00;;;;;;;;5056289;28;45484;-66
2022/09/03 11:12:20;;;;;;;;;5.33;5.33;;;;;;;;5041189;28;45721;-64
2022/09/03 11:14:49;;;;;;;;;5.00;5.00;;;;;;;;5022391;28;45657;-65
2022/09/03 11:17:19;;;;;;;;;4.33;3.00;;;;;;;;5040131;28;45608;-65
2022/09/03 11:19:48;;;;;;;;;4.00;4.00;;;;;;;;5042234;28;45346;-66
2022/09/03 11:22:16;;;;;;;;;4.00;4.00;;;;;;;;5039996;28;45222;-65
2022/09/03 11:24:43;;;;;;;;;4.67;4.67;;;;;;;;5041638;28;45560;-66
2022/09/03 11:27:15;;;;;;;;;4.00;4.00;;;;;;;;5039102;28;46191;-66
2022/09/03 11:29:48;;;;;;;;;4.00;4.00;;;;;;;;5042132;28;45323;-65
2022/09/03 11:32:14;;;;;;;;;6.00;5.00;;;;;;;;5040184;28;45377;-65
2022/09/03 11:34:47;;;;;;;;;6.00;6.00;;;;;;;;5038809;28;45294;-65
2022/09/03 11:37:12;;;;;;;;;6.67;5.00;;;;;;;;5038525;28;45664;-65
2022/09/03 11:39:38;;;;;;;;;5.25;5.25;;;;;;;;5039732;28;45254;-65
2022/09/03 11:42:08;;;;;;;;;4.67;4.67;;;;;;;;5038870;28;45494;-66
2022/09/03 11:44:44;;;;;;;;;4.00;4.00;;;;;;;;5037316;28;45538;-66
2022/09/03 11:47:32;;;;;;;;;9.33;5.67;;;;;;;;5039071;28;46302;-65
2022/09/03 11:50:04;;;;;;;;;3.00;3.00;;;;;;;;5031684;28;45536;-66
2022/09/03 11:52:31;;;;;;;;;5.00;5.00;;;;;;;;5041332;28;45302;-65
2022/09/03 11:54:57;;;;;;;;;5.00;5.00;;;;;;;;5038631;28;45465;-65
2022/09/03 11:57:26;;;;;;;;;5.33;3.00;;;;;;;;5039471;28;46197;-64
2022/09/03 11:59:51;;;;;;;;;5.33;5.00;;;;;;;;5041731;28;45334;-66
2022/09/03 12:02:32;;;;;;;;;6.00;6.00;;;;;;;;5037146;28;45576;-65
2022/09/03 12:05:05;;;;;;;;;5.00;5.00;;;;;;;;5054967;28;45528;-66
2022/09/03 12:07:50;;;;;;;;;3.00;3.00;;;;;;;;5038069;28;45873;-66
2022/09/03 12:10:34;;;;;;;;;4.33;3.67;;;;;;;;5041638;28;45372;-66
2022/09/03 12:13:11;;;;;;;;;4.00;4.00;;;;;;;;5037049;28;45519;-66
2022/09/03 12:15:53;;;;;;;;;2.00;2.00;;;;;;;;5042022;28;45361;-66
2022/09/03 12:18:23;;;;;;;;;4.00;4.00;;;;;;;;5039491;28;45512;-66
2022/09/03 12:20:51;;;;;;;;;2.67;2.67;;;;;;;;5041287;28;45298;-66
2022/09/03 12:23:33;;;;;;;;;3.00;3.00;;;;;;;;5037241;28;45366;-66
2022/09/03 12:26:02;;;;;;;;;4.00;4.00;;;;;;;;5040553;28;45276;-67
2022/09/03 12:28:28;;;;;;;;;3.00;3.00;;;;;;;;5054122;28;47875;-65
2022/09/03 12:31:04;;;;;;;;;3.00;3.00;;;;;;;;5040554;28;45306;-65
2022/09/03 12:33:31;;;;;;;;;1.00;1.00;;;;;;;;5034014;28;45302;-66
2022/09/03 12:35:56;;;;;;;;;2.33;1.00;;;;;;;;5041726;28;45263;-65
2022/09/03 12:38:23;;;;;;;;;2.00;2.00;;;;;;;;5036510;28;46100;-65
2022/09/03 12:40:48;;;;;;;;;1.00;1.00;;;;;;;;5032430;28;45429;-65
2022/09/03 12:43:14;;;;;;;;;2.00;2.00;;;;;;;;5037555;28;45332;-66
2022/09/03 12:45:44;;;;;;;;;2.00;2.00;;;;;;;;5060567;28;45611;-65
2022/09/03 12:48:16;;;;;;;;;2.00;2.00;;;;;;;;5036760;28;47132;-65
2022/09/03 12:50:42;;;;;;;;;2.00;2.00;;;;;;;;5044350;28;45324;-66
2022/09/03 12:53:10;;;;;;;;;0.67;0.67;;;;;;;;5042343;28;45407;-66
2022/09/03 12:55:50;;;;;;;;;1.00;1.00;;;;;;;;5043680;28;45174;-65
2022/09/03 12:58:21;;;;;;;;;1.67;1.00;;;;;;;;5039198;28;45476;-65
2022/09/03 13:00:55;;;;;;;;;2.00;2.00;;;;;;;;5056034;28;45418;-66
2022/09/03 13:03:33;;;;;;;;;1.00;1.00;;;;;;;;5041087;28;45317;-66
2022/09/03 13:06:00;;;;;;;;;1.67;1.67;;;;;;;;5044784;28;45452;-64
2022/09/03 13:08:28;;;;;;;;;0.67;0.67;;;;;;;;5053081;28;46810;-66
2022/09/03 13:10:57;;;;;;;;;0.33;0.33;;;;;;;;5043713;28;45383;-65
2022/09/03 13:13:24;;;;;;;;;2.00;2.00;;;;;;;;5039515;28;45369;-66
2022/09/03 13:16:02;;;;;;;;;2.00;2.00;;;;;;;;5044327;28;45553;-66
2022/09/03 13:18:38;;;;;;;;;1.00;1.00;;;;;;;;5040631;28;45518;-66
2022/09/03 13:21:12;;;;;;;;;2.33;2.00;;;;;;;;5042176;28;45372;-65
2022/09/03 13:23:47;;;;;;;;;2.00;2.00;;;;;;;;5040139;28;45316;-66
2022/09/03 13:26:21;;;;;;;;;1.00;1.00;;;;;;;;5044244;28;45694;-66
2022/09/03 13:28:58;;;;;;;;;2.00;1.00;;;;;;;;5035151;28;46674;-66
2022/09/03 13:31:42;;;;;;;;;8.00;8.00;;;;;;;;5043759;28;45434;-66
2022/09/03 13:34:34;;;;;;;;;3.00;3.00;;;;;;;;5058727;28;45556;-66
2022/09/03 13:37:18;;;;;;;;;1.00;1.00;;;;;;;;5039698;28;45160;-65
2022/09/03 13:39:51;;;;;;;;;1.00;1.00;;;;;;;;5033472;28;48252;-66
2022/09/03 13:42:30;;;;;;;;;0.33;0.33;;;;;;;;5038792;28;45292;-66
2022/09/03 13:45:05;;;;;;;;;1.00;1.00;;;;;;;;5036893;28;46670;-65
2022/09/03 13:47:38;;;;;;;;;0.33;0.00;;;;;;;;5038524;28;45558;-65
2022/09/03 13:50:25;;;;;;;;;1.00;1.00;;;;;;;;5038440;28;47373;-65
2022/09/03 13:53:03;;;;;;;;;2.00;0.00;;;;;;;;5049039;28;45960;-65
2022/09/03 13:55:32;;;;;;;;;0.33;0.33;;;;;;;;5035621;28;45509;-65
2022/09/03 13:57:57;;;;;;;;;0.00;0.00;;;;;;;;5036975;28;45278;-66
2022/09/03 14:00:43;;;;;;;;;0.00;0.00;;;;;;;;5042950;28;46123;-66
2022/09/03 14:03:22;;;;;;;;;0.00;0.00;;;;;;;;5039669;28;45511;-66
2022/09/03 14:06:00;;;;;;;;;0.33;0.33;;;;;;;;5041965;28;45339;-66
2022/09/03 14:08:31;;;;;;;;;2.00;0.00;;;;;;;;5034519;28;45533;-66
2022/09/03 14:11:01;;;;;;;;;1.00;1.00;;;;;;;;5042260;28;46400;-66
2022/09/03 14:13:37;;;;;;;;;0.67;0.67;;;;;;;;5054015;28;45385;-66
2022/09/03 14:16:06;;;;;;;;;1.00;1.00;;;;;;;;5040032;28;45268;-66
2022/09/03 14:18:34;;;;;;;;;0.50;0.50;;;;;;;;5054569;28;45422;-65
2022/09/03 14:21:06;;;;;;;;;0.67;0.67;;;;;;;;5042123;28;45558;-67
2022/09/03 14:23:43;;;;;;;;;2.00;2.00;;;;;;;;5041049;28;45297;-66
2022/09/03 14:26:15;;;;;;;;;1.00;1.00;;;;;;;;5032220;28;45288;-66
2022/09/03 14:28:48;;;;;;;;;2.00;1.00;;;;;;;;5053783;28;45461;-66
2022/09/03 14:31:26;;;;;;;;;1.00;1.00;;;;;;;;5057867;28;48241;-65
2022/09/03 14:34:01;;;;;;;;;1.00;1.00;;;;;;;;5033561;28;45482;-66
2022/09/03 14:36:33;;;;;;;;;0.00;0.00;;;;;;;;5041703;28;45375;-65
2022/09/03 14:38:58;;;;;;;;;1.00;1.00;;;;;;;;5041730;28;45539;-65
2022/09/03 14:41:42;;;;;;;;;1.00;1.00;;;;;;;;5042840;28;46492;-66
2022/09/03 14:44:07;;;;;;;;;1.00;1.00;;;;;;;;5035180;28;45365;-65
2022/09/03 14:46:32;;;;;;;;;0.67;0.67;;;;;;;;5042350;28;45195;-65
2022/09/03 14:49:11;;;;;;;;;1.00;1.00;;;;;;;;5036535;28;45160;-65
2022/09/03 14:51:57;;;;;;;;;2.00;2.00;;;;;;;;5041294;28;45635;-66
2022/09/03 14:54:45;;;;;;;;;1.00;1.00;;;;;;;;5010741;28;45339;-65
2022/09/03 14:57:13;;;;;;;;;1.00;1.00;;;;;;;;5027939;28;45496;-65
2022/09/03 14:59:38;;;;;;;;;3.67;1.67;;;;;;;;5037729;28;45576;-64